Time;durP1;ratioP1;P1;durP2;ratioP2;P2;SDS_P1;SDS_P2;PMS_P1;PMS_P2;Temp;Humidity;BMP_temperature;BMP_pressure;BME280_temperature;BME280_humidity;BME280_pressure;Samples;Min_cycle;Max_cycle;Signal;HPM_P1;HPM_P2
2023/10/21 00:00:17;;;;;;;;;;;11.20;99.90;;;;;;5016473;28;20653;-70
2023/10/21 00:02:43;;;;;;;;;;;11.10;99.90;;;;;;5058387;28;19924;-69
2023/10/21 00:05:09;;;;;;;;;;;11.20;99.90;;;;;;5022248;28;20012;-69
2023/10/21 00:07:35;;;;;;;;;;;11.20;99.90;;;;;;5045331;28;20344;-70
2023/10/21 00:10:01;;;;;;;;;;;11.20;99.90;;;;;;5019555;28;19946;-69
2023/10/21 00:12:27;;;;;;;;;;;11.30;99.90;;;;;;5059386;28;19921;-69
2023/10/21 00:14:53;;;;;;;;;;;11.30;99.90;;;;;;5018532;28;19925;-70
2023/10/21 00:17:19;;;;;;;;;;;11.30;99.90;;;;;;5029254;28;20299;-70
2023/10/21 00:19:45;;;;;;;;;;;11.20;99.90;;;;;;5044141;28;19923;-70
2023/10/21 00:22:10;;;;;;;;;;;11.10;99.90;;;;;;5036879;28;20310;-69
2023/10/21 00:24:37;;;;;;;;;;;11.20;99.90;;;;;;5056735;28;19978;-70
2023/10/21 00:27:02;;;;;;;;;;;11.10;99.90;;;;;;5001188;28;19920;-70
2023/10/21 00:29:28;;;;;;;;;;;11.10;99.90;;;;;;5061310;28;19920;-70
2023/10/21 00:31:54;;;;;;;;;;;11.10;99.90;;;;;;5014805;28;20401;-69
2023/10/21 00:34:20;;;;;;;;;;;11.00;99.90;;;;;;5056509;28;20399;-70
2023/10/21 00:36:46;;;;;;;;;;;11.00;99.90;;;;;;5021200;28;19934;-70
2023/10/21 00:39:12;;;;;;;;;;;10.80;99.90;;;;;;5059703;28;20297;-70
2023/10/21 00:41:38;;;;;;;;;;;10.90;99.90;;;;;;5020512;28;19921;-70
2023/10/21 00:44:05;;;;;;;;;;;10.80;99.90;;;;;;5057561;28;19931;-70
2023/10/21 00:46:30;;;;;;;;;;;10.80;99.90;;;;;;5004277;28;19936;-70
2023/10/21 00:48:57;;;;;;;;;;;10.80;99.90;;;;;;5055306;28;19925;-70
2023/10/21 00:51:23;;;;;;;;;;;10.70;99.90;;;;;;4983587;28;77541;-69
2023/10/21 00:53:49;;;;;;;;;;;10.70;99.90;;;;;;5059156;28;19920;-69
2023/10/21 00:56:15;;;;;;;;;;;10.60;99.90;;;;;;5010557;28;20273;-69
2023/10/21 00:58:41;;;;;;;;;;;10.60;99.90;;;;;;5048427;28;19920;-70
2023/10/21 01:01:08;;;;;;;;;;;10.60;99.90;;;;;;5020469;28;19927;-69
2023/10/21 01:03:34;;;;;;;;;;;10.60;99.90;;;;;;5056360;28;19920;-70
2023/10/21 01:06:00;;;;;;;;;;;10.60;99.90;;;;;;5015256;28;19920;-69
2023/10/21 01:08:26;;;;;;;;;;;10.60;99.90;;;;;;5051330;28;19923;-70
2023/10/21 01:10:52;;;;;;;;;;;10.60;99.90;;;;;;5010873;28;19928;-70
2023/10/21 01:13:18;;;;;;;;;;;10.50;99.90;;;;;;5062057;28;19920;-70
2023/10/21 01:15:44;;;;;;;;;;;10.50;99.90;;;;;;5017079;28;19980;-70
2023/10/21 01:18:10;;;;;;;;;;;10.50;99.90;;;;;;5042068;28;19942;-69
2023/10/21 01:20:41;;;;;;;;;;;10.40;99.90;;;;;;5011068;28;19924;-69
2023/10/21 01:23:07;;;;;;;;;;;10.40;99.90;;;;;;5045153;28;19927;-70
2023/10/21 01:25:33;;;;;;;;;;;10.40;99.90;;;;;;5003978;28;20294;-69
2023/10/21 01:27:59;;;;;;;;;;;10.40;99.90;;;;;;5032150;28;19931;-70
2023/10/21 01:30:26;;;;;;;;;;;10.30;99.90;;;;;;5018543;28;19921;-69
2023/10/21 01:32:52;;;;;;;;;;;10.40;99.90;;;;;;5052365;28;19924;-70
2023/10/21 01:35:18;;;;;;;;;;;10.30;99.90;;;;;;5021322;28;19931;-70
2023/10/21 01:37:45;;;;;;;;;;;10.30;99.90;;;;;;5056812;28;20375;-70
2023/10/21 01:40:12;;;;;;;;;;;10.20;99.90;;;;;;5020103;28;20051;-70
2023/10/21 01:42:38;;;;;;;;;;;10.20;99.90;;;;;;5055762;28;19920;-70
2023/10/21 01:45:04;;;;;;;;;;;10.20;99.90;;;;;;5019428;28;20627;-70
2023/10/21 01:47:30;;;;;;;;;;;10.20;99.90;;;;;;5038958;28;20115;-69
2023/10/21 01:49:57;;;;;;;;;;;10.20;99.90;;;;;;5004501;28;124525;-69
2023/10/21 01:52:23;;;;;;;;;;;10.20;99.90;;;;;;5025928;28;19943;-69
2023/10/21 01:54:50;;;;;;;;;;;10.20;99.90;;;;;;4999048;28;19924;-69
2023/10/21 01:57:16;;;;;;;;;;;10.20;99.90;;;;;;5041271;28;19923;-69
2023/10/21 01:59:42;;;;;;;;;;;10.20;99.90;;;;;;5046234;28;19921;-70
2023/10/21 02:02:08;;;;;;;;;;;10.10;99.90;;;;;;4998223;28;19916;-70
2023/10/21 02:04:35;;;;;;;;;;;10.20;99.90;;;;;;5058878;28;19923;-69
2023/10/21 02:07:00;;;;;;;;;;;10.20;99.90;;;;;;4988628;28;19925;-69
2023/10/21 02:09:27;;;;;;;;;;;10.10;99.90;;;;;;5059679;28;19916;-70
2023/10/21 02:11:53;;;;;;;;;;;10.10;99.90;;;;;;4988639;28;19925;-69
2023/10/21 02:14:22;;;;;;;;;;;10.10;99.90;;;;;;5055092;28;19924;-69
2023/10/21 02:16:51;;;;;;;;;;;10.10;99.90;;;;;;5017407;28;19935;-69
2023/10/21 02:19:17;;;;;;;;;;;10.10;99.90;;;;;;5058044;28;20414;-70
2023/10/21 02:21:43;;;;;;;;;;;10.00;99.90;;;;;;4996243;28;43838;-69
2023/10/21 02:24:09;;;;;;;;;;;10.00;99.90;;;;;;5059233;28;19924;-70
2023/10/21 02:26:35;;;;;;;;;;;10.00;99.90;;;;;;4984639;28;19924;-68
2023/10/21 02:29:01;;;;;;;;;;;9.90;99.90;;;;;;5054762;28;20156;-68
2023/10/21 02:31:27;;;;;;;;;;;9.90;99.90;;;;;;5018683;28;20011;-69
2023/10/21 02:33:53;;;;;;;;;;;9.90;99.90;;;;;;5059438;28;19920;-70
2023/10/21 02:36:19;;;;;;;;;;;9.90;99.90;;;;;;5002655;28;19924;-70
2023/10/21 02:38:45;;;;;;;;;;;9.90;99.90;;;;;;5052978;28;19920;-70
2023/10/21 02:41:11;;;;;;;;;;;9.90;99.90;;;;;;4998946;28;20451;-69
2023/10/21 02:43:37;;;;;;;;;;;9.90;99.90;;;;;;5053875;28;20349;-70
2023/10/21 02:46:07;;;;;;;;;;;9.90;99.90;;;;;;5006706;28;19923;-70
2023/10/21 02:48:33;;;;;;;;;;;9.90;99.90;;;;;;5047556;28;19931;-69
2023/10/21 02:51:00;;;;;;;;;;;9.90;99.90;;;;;;4998333;28;19921;-70
2023/10/21 02:53:25;;;;;;;;;;;9.90;99.90;;;;;;5050502;28;19920;-70
2023/10/21 02:55:51;;;;;;;;;;;9.90;99.90;;;;;;5011207;28;19931;-70
2023/10/21 02:58:17;;;;;;;;;;;9.90;99.90;;;;;;5043787;28;20310;-69
2023/10/21 03:00:43;;;;;;;;;;;9.90;99.90;;;;;;5011893;28;19926;-70
2023/10/21 03:03:09;;;;;;;;;;;9.90;99.90;;;;;;5047706;28;19920;-70
2023/10/21 03:05:35;;;;;;;;;;;9.90;99.90;;;;;;5012872;28;19920;-70
2023/10/21 03:08:01;;;;;;;;;;;10.00;99.90;;;;;;5059886;28;20223;-69
2023/10/21 03:10:27;;;;;;;;;;;10.00;99.90;;;;;;5014238;28;19920;-70
2023/10/21 03:12:53;;;;;;;;;;;10.00;99.90;;;;;;5026541;28;19935;-70
2023/10/21 03:15:18;;;;;;;;;;;9.90;99.90;;;;;;5014468;28;19924;-70
2023/10/21 03:17:45;;;;;;;;;;;10.00;99.90;;;;;;5045794;28;21203;-70
2023/10/21 03:20:11;;;;;;;;;;;10.00;99.90;;;;;;5014918;28;19927;-70
2023/10/21 03:22:36;;;;;;;;;;;10.00;99.90;;;;;;5040011;28;20011;-72
2023/10/21 03:25:05;;;;;;;;;;;10.00;99.90;;;;;;5016502;28;20454;-70
2023/10/21 03:27:32;;;;;;;;;;;10.00;99.90;;;;;;5052907;28;19924;-69
2023/10/21 03:29:57;;;;;;;;;;;10.00;99.90;;;;;;5014130;28;45022;-69
2023/10/21 03:32:23;;;;;;;;;;;10.00;99.90;;;;;;5059307;28;19920;-70
2023/10/21 03:34:49;;;;;;;;;;;10.10;99.90;;;;;;5017004;28;19927;-70
2023/10/21 03:37:15;;;;;;;;;;;10.10;99.90;;;;;;5046588;28;19963;-69
2023/10/21 03:39:41;;;;;;;;;;;10.10;99.90;;;;;;5057107;28;20442;-70
2023/10/21 03:42:07;;;;;;;;;;;10.10;99.90;;;;;;5027067;28;20479;-69
2023/10/21 03:44:33;;;;;;;;;;;10.00;99.90;;;;;;5055001;28;19916;-71
2023/10/21 03:46:59;;;;;;;;;;;10.00;99.90;;;;;;5006278;28;19934;-69
2023/10/21 03:49:25;;;;;;;;;;;10.00;99.90;;;;;;5058911;28;19917;-69
2023/10/21 03:51:51;;;;;;;;;;;10.10;99.90;;;;;;4981033;28;63156;-70
2023/10/21 03:54:17;;;;;;;;;;;10.10;99.90;;;;;;5057736;28;20405;-68
2023/10/21 03:56:43;;;;;;;;;;;10.10;99.90;;;;;;5019769;28;19924;-70
2023/10/21 03:59:09;;;;;;;;;;;10.00;99.90;;;;;;5041817;28;20462;-70
2023/10/21 04:01:35;;;;;;;;;;;10.00;99.90;;;;;;5009813;28;20399;-69
2023/10/21 04:04:01;;;;;;;;;;;10.00;99.90;;;;;;5055740;28;19917;-70
2023/10/21 04:06:26;;;;;;;;;;;10.00;99.90;;;;;;4991158;28;20409;-70
2023/10/21 04:08:52;;;;;;;;;;;10.00;99.90;;;;;;5055282;28;19925;-68
2023/10/21 04:11:20;;;;;;;;;;;10.00;99.90;;;;;;5016087;28;19916;-70
2023/10/21 04:13:46;;;;;;;;;;;10.00;99.90;;;;;;5056526;28;19947;-70
2023/10/21 04:16:13;;;;;;;;;;;9.90;99.90;;;;;;5007195;28;19928;-71
2023/10/21 04:18:38;;;;;;;;;;;9.90;99.90;;;;;;5046233;28;19920;-70
2023/10/21 04:21:05;;;;;;;;;;;9.90;99.90;;;;;;5017871;28;19920;-71
2023/10/21 04:23:31;;;;;;;;;;;9.90;99.90;;;;;;5052218;28;19925;-70
2023/10/21 04:25:57;;;;;;;;;;;10.00;99.90;;;;;;5016834;28;19923;-70
2023/10/21 04:28:23;;;;;;;;;;;9.90;99.90;;;;;;5061008;28;19930;-69
2023/10/21 04:30:49;;;;;;;;;;;9.90;99.90;;;;;;5008659;28;20047;-70
2023/10/21 04:33:15;;;;;;;;;;;9.90;99.90;;;;;;5051524;28;20370;-70
2023/10/21 04:35:41;;;;;;;;;;;9.80;99.90;;;;;;5000928;28;20685;-73
2023/10/21 04:38:07;;;;;;;;;;;9.80;99.90;;;;;;5040429;28;19920;-70
2023/10/21 04:40:33;;;;;;;;;;;9.80;99.90;;;;;;5008527;28;19923;-70
2023/10/21 04:42:59;;;;;;;;;;;9.80;99.90;;;;;;5039845;28;19932;-70
2023/10/21 04:45:25;;;;;;;;;;;9.80;99.90;;;;;;5011690;28;19924;-69
2023/10/21 04:47:51;;;;;;;;;;;9.70;99.90;;;;;;5032842;28;20682;-69
2023/10/21 04:50:17;;;;;;;;;;;9.70;99.90;;;;;;5000951;28;98715;-70
2023/10/21 04:52:43;;;;;;;;;;;9.70;99.90;;;;;;5031429;28;19921;-69
2023/10/21 04:55:09;;;;;;;;;;;9.60;99.90;;;;;;5019443;28;20298;-70
2023/10/21 04:57:35;;;;;;;;;;;9.60;99.90;;;;;;5041913;28;19940;-68
2023/10/21 05:00:03;;;;;;;;;;;9.70;99.90;;;;;;5019623;28;20351;-70
2023/10/21 05:02:29;;;;;;;;;;;9.60;99.90;;;;;;5040148;28;19920;-69
2023/10/21 05:04:55;;;;;;;;;;;9.70;99.90;;;;;;5019348;28;19926;-70
2023/10/21 05:07:21;;;;;;;;;;;9.70;99.90;;;;;;5040170;28;20397;-70
2023/10/21 05:09:46;;;;;;;;;;;9.70;99.90;;;;;;5033910;28;19927;-69
2023/10/21 05:12:12;;;;;;;;;;;9.70;99.90;;;;;;5040887;28;20385;-70
2023/10/21 05:14:38;;;;;;;;;;;9.70;99.90;;;;;;5058131;28;19920;-69
2023/10/21 05:17:05;;;;;;;;;;;9.80;99.90;;;;;;5008602;28;20371;-69
2023/10/21 05:19:31;;;;;;;;;;;9.80;99.90;;;;;;5057605;28;20404;-69
2023/10/21 05:21:57;;;;;;;;;;;9.80;99.90;;;;;;5022545;28;19924;-70
2023/10/21 05:24:23;;;;;;;;;;;9.80;99.90;;;;;;5059727;28;19920;-69
2023/10/21 05:26:48;;;;;;;;;;;9.80;99.90;;;;;;5022088;28;19926;-70
2023/10/21 05:29:14;;;;;;;;;;;9.80;99.90;;;;;;5043958;28;19922;-69
2023/10/21 05:31:41;;;;;;;;;;;9.90;99.90;;;;;;5011010;28;19922;-70
2023/10/21 05:34:07;;;;;;;;;;;9.90;99.90;;;;;;5061608;28;20644;-71
2023/10/21 05:36:34;;;;;;;;;;;9.90;99.90;;;;;;5007016;28;20387;-70
2023/10/21 05:39:00;;;;;;;;;;;9.90;99.90;;;;;;5059281;28;19921;-68
2023/10/21 05:41:26;;;;;;;;;;;10.00;99.90;;;;;;5001503;28;19931;-69
2023/10/21 05:43:52;;;;;;;;;;;10.00;99.90;;;;;;5056483;28;20662;-70
2023/10/21 05:46:18;;;;;;;;;;;10.00;99.90;;;;;;4993234;28;19929;-69
2023/10/21 05:48:44;;;;;;;;;;;10.10;99.90;;;;;;5053732;28;19924;-70
2023/10/21 05:51:09;;;;;;;;;;;10.10;99.90;;;;;;4982671;28;39956;-69
2023/10/21 05:53:35;;;;;;;;;;;10.10;99.90;;;;;;5044933;28;19920;-70
2023/10/21 05:56:01;;;;;;;;;;;10.10;99.90;;;;;;5018612;28;20411;-70
2023/10/21 05:58:27;;;;;;;;;;;10.20;99.90;;;;;;5055546;28;19931;-70
2023/10/21 06:00:53;;;;;;;;;;;10.20;99.90;;;;;;5006381;28;19920;-70
2023/10/21 06:03:19;;;;;;;;;;;10.30;99.90;;;;;;5056623;28;19946;-70
2023/10/21 06:05:45;;;;;;;;;;;10.30;99.90;;;;;;5012740;28;19921;-68
2023/10/21 06:08:11;;;;;;;;;;;10.30;99.90;;;;;;5056687;28;20469;-71
2023/10/21 06:10:37;;;;;;;;;;;10.30;99.90;;;;;;5015395;28;19922;-69
2023/10/21 06:13:03;;;;;;;;;;;10.30;99.90;;;;;;5050448;28;20303;-70
2023/10/21 06:15:29;;;;;;;;;;;10.40;99.90;;;;;;5011094;28;20360;-69
2023/10/21 06:17:56;;;;;;;;;;;10.30;99.90;;;;;;5044448;28;19916;-70
2023/10/21 06:20:21;;;;;;;;;;;10.40;99.90;;;;;;5015822;28;19920;-70
2023/10/21 06:22:48;;;;;;;;;;;10.40;99.90;;;;;;5038084;28;19935;-69
2023/10/21 06:25:15;;;;;;;;;;;10.40;99.90;;;;;;5009286;28;19923;-70
2023/10/21 06:27:41;;;;;;;;;;;10.50;99.90;;;;;;5043245;28;19917;-69
2023/10/21 06:30:07;;;;;;;;;;;10.40;99.90;;;;;;5013739;28;19964;-69
2023/10/21 06:32:33;;;;;;;;;;;10.50;99.90;;;;;;5036792;28;19936;-72
2023/10/21 06:34:59;;;;;;;;;;;10.50;99.90;;;;;;5020926;28;19939;-70
2023/10/21 06:37:25;;;;;;;;;;;10.50;99.90;;;;;;5056047;28;19920;-70
2023/10/21 06:39:51;;;;;;;;;;;10.50;99.90;;;;;;5023087;28;19920;-70
2023/10/21 06:42:17;;;;;;;;;;;10.60;99.90;;;;;;5040815;28;19934;-70
2023/10/21 06:44:43;;;;;;;;;;;10.60;99.90;;;;;;5047556;28;20558;-69
2023/10/21 06:47:09;;;;;;;;;;;10.70;99.90;;;;;;5025556;28;20034;-69
2023/10/21 06:49:34;;;;;;;;;;;10.70;99.90;;;;;;5055674;28;19928;-71
2023/10/21 06:52:00;;;;;;;;;;;10.80;99.90;;;;;;4971872;28;114499;-70
2023/10/21 06:54:26;;;;;;;;;;;10.70;99.90;;;;;;5053812;28;19923;-70
2023/10/21 06:56:52;;;;;;;;;;;10.80;99.90;;;;;;4994228;28;19940;-70
2023/10/21 06:59:18;;;;;;;;;;;10.80;99.90;;;;;;5053948;28;20416;-70
2023/10/21 07:01:44;;;;;;;;;;;11.00;99.90;;;;;;5019223;28;19926;-71
2023/10/21 07:04:10;;;;;;;;;;;11.00;99.90;;;;;;5057550;28;19922;-70
2023/10/21 07:06:37;;;;;;;;;;;11.00;99.90;;;;;;5016898;28;19920;-70
2023/10/21 07:09:03;;;;;;;;;;;11.10;99.90;;;;;;5055439;28;19920;-69
2023/10/21 07:11:28;;;;;;;;;;;11.10;99.90;;;;;;5004439;28;20012;-70
2023/10/21 07:13:54;;;;;;;;;;;11.20;99.90;;;;;;5050244;28;20394;-70
2023/10/21 07:16:20;;;;;;;;;;;11.20;99.90;;;;;;5005186;28;20013;-69
2023/10/21 07:18:46;;;;;;;;;;;11.30;99.90;;;;;;5051823;28;19932;-69
2023/10/21 07:21:12;;;;;;;;;;;11.30;99.90;;;;;;5004908;28;19920;-69
2023/10/21 07:23:38;;;;;;;;;;;11.30;99.90;;;;;;5051221;28;19927;-70
2023/10/21 07:26:04;;;;;;;;;;;11.30;99.90;;;;;;5004639;28;20413;-69
2023/10/21 07:28:31;;;;;;;;;;;11.40;99.90;;;;;;5049582;28;19925;-69
2023/10/21 07:30:57;;;;;;;;;;;11.40;99.90;;;;;;4997972;28;19928;-70
2023/10/21 07:33:23;;;;;;;;;;;11.40;99.90;;;;;;5039978;28;19932;-70
2023/10/21 07:35:50;;;;;;;;;;;11.40;99.90;;;;;;5006804;28;20008;-69
2023/10/21 07:38:16;;;;;;;;;;;11.50;99.90;;;;;;5050939;28;19928;-72
2023/10/21 07:40:43;;;;;;;;;;;11.50;99.90;;;;;;5013758;28;19925;-71
2023/10/21 07:43:09;;;;;;;;;;;11.50;99.90;;;;;;5041223;28;19921;-70
2023/10/21 07:45:35;;;;;;;;;;;11.60;99.90;;;;;;5014217;28;19931;-70
2023/10/21 07:48:02;;;;;;;;;;;11.60;99.90;;;;;;5059037;28;19921;-70
2023/10/21 07:50:28;;;;;;;;;;;11.70;99.90;;;;;;4996752;28;95899;-71
2023/10/21 07:52:54;;;;;;;;;;;11.70;99.90;;;;;;5033905;28;19924;-71
2023/10/21 07:55:20;;;;;;;;;;;11.80;99.90;;;;;;5011624;28;20091;-70
2023/10/21 07:57:46;;;;;;;;;;;11.90;99.90;;;;;;5046948;28;19928;-72
2023/10/21 08:00:13;;;;;;;;;;;11.90;99.90;;;;;;5008994;28;19920;-70
2023/10/21 08:02:39;;;;;;;;;;;12.00;99.90;;;;;;5040696;28;19921;-70
2023/10/21 08:05:07;;;;;;;;;;;12.00;99.90;;;;;;5017508;28;19925;-70
2023/10/21 08:07:33;;;;;;;;;;;12.10;99.90;;;;;;5059114;28;20394;-71
2023/10/21 08:09:59;;;;;;;;;;;12.10;99.90;;;;;;5016977;28;19920;-70
2023/10/21 08:12:25;;;;;;;;;;;12.20;99.90;;;;;;5041045;28;20306;-70
2023/10/21 08:14:51;;;;;;;;;;;12.20;99.90;;;;;;5015316;28;19917;-70
2023/10/21 08:17:17;;;;;;;;;;;12.30;99.90;;;;;;5039878;28;19921;-69
2023/10/21 08:19:44;;;;;;;;;;;12.40;99.90;;;;;;5045235;28;20307;-69
2023/10/21 08:22:10;;;;;;;;;;;12.50;99.90;;;;;;5030799;28;19940;-69
2023/10/21 08:24:36;;;;;;;;;;;12.60;99.90;;;;;;5060094;28;20473;-72
2023/10/21 08:27:04;;;;;;;;;;;12.60;99.90;;;;;;5012694;28;19925;-70
2023/10/21 08:29:30;;;;;;;;;;;12.70;99.90;;;;;;5057058;28;19917;-70
2023/10/21 08:31:56;;;;;;;;;;;12.80;99.90;;;;;;5003665;28;21456;-69
2023/10/21 08:34:22;;;;;;;;;;;12.80;99.90;;;;;;5061452;28;19924;-70
2023/10/21 08:36:49;;;;;;;;;;;12.90;99.90;;;;;;5011531;28;20003;-69
2023/10/21 08:39:15;;;;;;;;;;;12.90;99.90;;;;;;5062551;28;19923;-70
2023/10/21 08:41:41;;;;;;;;;;;12.90;99.90;;;;;;5021693;28;19916;-69
2023/10/21 08:44:07;;;;;;;;;;;13.00;99.90;;;;;;5056754;28;19920;-69
2023/10/21 08:46:34;;;;;;;;;;;12.90;99.90;;;;;;5011532;28;19940;-69
2023/10/21 08:49:03;;;;;;;;;;;13.00;99.90;;;;;;5058796;28;19923;-70
2023/10/21 08:51:30;;;;;;;;;;;13.10;99.90;;;;;;4991927;28;82723;-70
2023/10/21 08:54:03;;;;;;;;;;;13.10;99.90;;;;;;5058444;28;19931;-70
2023/10/21 08:56:35;;;;;;;;;;;13.10;99.90;;;;;;4999412;28;19921;-69
2023/10/21 08:59:01;;;;;;;;;;;13.10;99.90;;;;;;5059047;28;20352;-69
2023/10/21 09:01:27;;;;;;;;;;;13.20;99.90;;;;;;4999028;28;19936;-69
2023/10/21 09:03:53;;;;;;;;;;;13.20;99.90;;;;;;5054581;28;19924;-69
2023/10/21 09:06:19;;;;;;;;;;;13.40;99.90;;;;;;5010283;28;19963;-70
2023/10/21 09:08:47;;;;;;;;;;;13.50;99.90;;;;;;5058568;28;19938;-70
2023/10/21 09:11:15;;;;;;;;;;;13.40;99.90;;;;;;5010813;28;19920;-70
2023/10/21 09:13:41;;;;;;;;;;;13.50;99.90;;;;;;5062684;28;19924;-72
2023/10/21 09:16:23;;;;;;;;;;;13.50;99.90;;;;;;4989623;28;21990;-69
2023/10/21 09:19:00;;;;;;;;;;;13.60;99.90;;;;;;5052244;28;19928;-70
2023/10/21 09:21:41;;;;;;;;;;;13.80;99.90;;;;;;4998232;28;19916;-69
2023/10/21 09:24:11;;;;;;;;;;;14.00;99.90;;;;;;5058765;28;19931;-69
2023/10/21 09:26:41;;;;;;;;;;;13.80;99.90;;;;;;5006477;28;19924;-70
2023/10/21 09:29:13;;;;;;;;;;;13.80;99.90;;;;;;5056844;28;20379;-69
2023/10/21 09:31:48;;;;;;;;;;;13.90;99.90;;;;;;5015686;28;20407;-70
2023/10/21 09:34:27;;;;;;;;;;;13.70;99.90;;;;;;5066058;28;20398;-68
2023/10/21 09:36:59;;;;;;;;;;;13.70;99.90;;;;;;5000144;28;20465;-70
2023/10/21 09:39:28;;;;;;;;;;;13.70;99.90;;;;;;5059785;28;19924;-70
2023/10/21 09:41:54;;;;;;;;;;;13.70;99.90;;;;;;5003180;28;19921;-70
2023/10/21 09:44:20;;;;;;;;;;;13.70;99.90;;;;;;5060339;28;19920;-69
2023/10/21 09:46:46;;;;;;;;;;;13.60;99.90;;;;;;5001987;28;19920;-68
2023/10/21 09:49:16;;;;;;;;;;;13.80;99.90;;;;;;5058843;28;20311;-71
2023/10/21 09:51:51;;;;;;;;;;;13.80;99.90;;;;;;5000086;28;96498;-70
2023/10/21 09:54:20;;;;;;;;;;;13.80;99.90;;;;;;5055697;28;20422;-69
2023/10/21 09:56:47;;;;;;;;;;;13.70;99.90;;;;;;5010392;28;19928;-70
2023/10/21 09:59:14;;;;;;;;;;;13.70;99.90;;;;;;5058316;28;20408;-68
2023/10/21 10:01:40;;;;;;;;;;;13.70;99.90;;;;;;4991442;28;19921;-71
2023/10/21 10:04:09;;;;;;;;;;;13.60;99.90;;;;;;5061690;28;19943;-69
2023/10/21 10:06:37;;;;;;;;;;;13.70;99.90;;;;;;5001271;28;19920;-70
2023/10/21 10:09:06;;;;;;;;;;;13.70;99.90;;;;;;5057164;28;20386;-70
2023/10/21 10:11:32;;;;;;;;;;;13.70;99.90;;;;;;5005415;28;19924;-71
2023/10/21 10:13:58;;;;;;;;;;;13.70;99.90;;;;;;5055069;28;19951;-70
2023/10/21 10:16:25;;;;;;;;;;;13.60;99.90;;;;;;4992021;28;19924;-70
2023/10/21 10:18:51;;;;;;;;;;;13.60;99.90;;;;;;5047715;28;19924;-69
2023/10/21 10:21:18;;;;;;;;;;;13.80;99.90;;;;;;4999474;28;19932;-69
2023/10/21 10:23:49;;;;;;;;;;;13.80;99.90;;;;;;5049636;28;20993;-69
2023/10/21 10:26:16;;;;;;;;;;;13.90;99.90;;;;;;4993328;28;19925;-71
2023/10/21 10:28:42;;;;;;;;;;;13.80;99.90;;;;;;5042095;28;19931;-70
2023/10/21 10:31:09;;;;;;;;;;;13.70;99.90;;;;;;5009684;28;19923;-71
2023/10/21 10:33:35;;;;;;;;;;;13.70;99.90;;;;;;5046301;28;19924;-69
2023/10/21 10:36:06;;;;;;;;;;;13.70;99.90;;;;;;5015062;28;21852;-69
2023/10/21 10:38:34;;;;;;;;;;;13.90;99.90;;;;;;5057349;28;19920;-70
2023/10/21 10:41:06;;;;;;;;;;;13.80;99.90;;;;;;5009586;28;19996;-70
2023/10/21 10:43:32;;;;;;;;;;;13.90;99.90;;;;;;5049250;28;19917;-71
2023/10/21 10:46:01;;;;;;;;;;;13.90;99.90;;;;;;5014638;28;19920;-69
2023/10/21 10:48:29;;;;;;;;;;;13.70;99.90;;;;;;5049167;28;20691;-70
2023/10/21 10:50:58;;;;;;;;;;;13.70;99.90;;;;;;5000425;28;168719;-70
2023/10/21 10:53:24;;;;;;;;;;;13.70;99.90;;;;;;5049857;28;19925;-70
2023/10/21 10:55:53;;;;;;;;;;;13.60;99.90;;;;;;5018935;28;19949;-69
2023/10/21 10:58:20;;;;;;;;;;;13.60;99.90;;;;;;5051561;28;19929;-70
2023/10/21 11:00:47;;;;;;;;;;;13.60;99.90;;;;;;5011182;28;20284;-70
2023/10/21 11:03:23;;;;;;;;;;;13.70;99.90;;;;;;5045376;28;20437;-70
2023/10/21 11:05:49;;;;;;;;;;;13.70;99.90;;;;;;5013132;28;19932;-70
2023/10/21 11:08:15;;;;;;;;;;;14.00;99.90;;;;;;5047903;28;20499;-70
2023/10/21 11:10:41;;;;;;;;;;;14.00;99.90;;;;;;5010593;28;19925;-70
2023/10/21 11:13:07;;;;;;;;;;;14.10;99.90;;;;;;5046676;28;19925;-70
2023/10/21 11:15:44;;;;;;;;;;;14.00;99.90;;;;;;5009956;28;19923;-69
2023/10/21 11:18:11;;;;;;;;;;;13.90;99.90;;;;;;5057709;28;19921;-69
2023/10/21 11:20:47;;;;;;;;;;;13.80;99.90;;;;;;5014472;28;19935;-70
2023/10/21 11:23:13;;;;;;;;;;;13.90;99.90;;;;;;5048941;28;19924;-69
2023/10/21 11:25:40;;;;;;;;;;;13.80;99.90;;;;;;5015453;28;19925;-69
2023/10/21 11:28:06;;;;;;;;;;;13.80;99.90;;;;;;5053832;28;20394;-68
2023/10/21 11:30:33;;;;;;;;;;;13.90;99.90;;;;;;5015492;28;20425;-69
2023/10/21 11:33:09;;;;;;;;;;;13.80;99.90;;;;;;5049139;28;19921;-69
2023/10/21 11:35:44;;;;;;;;;;;13.80;99.90;;;;;;5010033;28;19917;-69
2023/10/21 11:38:13;;;;;;;;;;;13.60;99.90;;;;;;5055520;28;19928;-70
2023/10/21 11:40:40;;;;;;;;;;;13.70;99.90;;;;;;5005506;28;19952;-69
2023/10/21 11:43:06;;;;;;;;;;;13.70;99.90;;;;;;5037885;28;19924;-70
2023/10/21 11:45:32;;;;;;;;;;;13.60;99.90;;;;;;5025746;28;19920;-69
2023/10/21 11:47:59;;;;;;;;;;;13.70;99.90;;;;;;5066931;28;20433;-69
2023/10/21 11:50:33;;;;;;;;;;;13.70;99.90;;;;;;4999606;28;77007;-68
2023/10/21 11:53:02;;;;;;;;;;;13.70;99.90;;;;;;5055015;28;19916;-67
2023/10/21 11:56:01;;;;;;;;;;;13.60;99.90;;;;;;5010840;28;19924;-68
2023/10/21 11:59:22;;;;;;;;;;;13.60;99.90;;;;;;5058261;28;19995;-69
2023/10/21 12:04:37;;;;;;;;;;;13.70;99.90;;;;;;5058828;28;20306;-69
2023/10/21 12:29:40;;;;;;;;;;;15.30;99.90;;;;;;5040239;28;19917;-69
2023/10/21 12:38:51;;;;;;;;;;;15.10;99.90;;;;;;5043169;28;20413;-69
2023/10/21 12:41:25;;;;;;;;;;;14.90;99.90;;;;;;4959695;28;19921;-69
2023/10/21 12:43:53;;;;;;;;;;;14.70;99.90;;;;;;5029517;28;19927;-69
2023/10/21 12:46:21;;;;;;;;;;;14.50;99.90;;;;;;5012597;28;20406;-69
2023/10/21 12:48:51;;;;;;;;;;;14.60;99.90;;;;;;5058003;28;20402;-67
2023/10/21 12:51:20;;;;;;;;;;;14.80;99.90;;;;;;4980496;28;255517;-68
2023/10/21 12:53:47;;;;;;;;;;;15.10;99.90;;;;;;5044554;28;19916;-68
2023/10/21 12:56:13;;;;;;;;;;;16.20;99.90;;;;;;5012351;28;19928;-68
2023/10/21 12:58:39;;;;;;;;;;;16.10;99.90;;;;;;5058398;28;19927;-68
2023/10/21 13:01:09;;;;;;;;;;;15.70;99.90;;;;;;5012957;28;19924;-68
2023/10/21 13:03:36;;;;;;;;;;;15.50;99.90;;;;;;5049258;28;19925;-68
2023/10/21 13:06:05;;;;;;;;;;;15.20;99.90;;;;;;5005232;28;19963;-68
2023/10/21 13:08:31;;;;;;;;;;;15.10;99.90;;;;;;5047809;28;19924;-68
2023/10/21 13:10:57;;;;;;;;;;;14.90;99.90;;;;;;5007867;28;20425;-69
2023/10/21 13:13:23;;;;;;;;;;;14.80;99.90;;;;;;5042970;28;19939;-69
2023/10/21 13:15:50;;;;;;;;;;;14.80;99.90;;;;;;5006974;28;19921;-69
2023/10/21 13:18:18;;;;;;;;;;;14.90;99.90;;;;;;5047889;28;19924;-68
2023/10/21 13:20:45;;;;;;;;;;;14.80;99.90;;;;;;5005243;28;19921;-69
2023/10/21 13:23:11;;;;;;;;;;;14.80;99.90;;;;;;5045158;28;20664;-69
2023/10/21 13:25:37;;;;;;;;;;;14.90;99.90;;;;;;5018426;28;20429;-69
2023/10/21 13:28:05;;;;;;;;;;;15.00;99.90;;;;;;5055539;28;19924;-68
2023/10/21 13:30:32;;;;;;;;;;;15.20;99.90;;;;;;5016042;28;19928;-69
2023/10/21 13:32:58;;;;;;;;;;;15.30;99.90;;;;;;5039241;28;19947;-69
2023/10/21 13:35:24;;;;;;;;;;;15.30;99.90;;;;;;5009633;28;20441;-69
2023/10/21 13:37:52;;;;;;;;;;;15.60;99.90;;;;;;5045077;28;19928;-69
2023/10/21 13:40:18;;;;;;;;;;;15.70;99.90;;;;;;5013986;28;20279;-70
2023/10/21 13:42:45;;;;;;;;;;;15.70;99.90;;;;;;5051145;28;19925;-70
2023/10/21 13:45:21;;;;;;;;;;;16.60;99.90;;;;;;5019191;28;19920;-70
2023/10/21 13:47:57;;;;;;;;;;;16.90;99.90;;;;;;5048538;28;20299;-70
2023/10/21 13:50:24;;;;;;;;;;;16.60;99.90;;;;;;5005891;28;135338;-69
2023/10/21 13:53:01;;;;;;;;;;;16.50;99.90;;;;;;5040098;28;19917;-69
2023/10/21 13:55:27;;;;;;;;;;;16.60;99.90;;;;;;5014617;28;20664;-69
2023/10/21 13:57:53;;;;;;;;;;;18.60;99.90;;;;;;5050651;28;19938;-69
2023/10/21 14:03:22;;;;;;;;;;;20.80;99.90;;;;;;5042343;28;19917;-69
2023/10/21 14:05:49;;;;;;;;;;;21.30;99.90;;;;;;5001344;28;19948;-69
2023/10/21 14:08:15;;;;;;;;;;;21.80;99.90;;;;;;5054542;28;19927;-70
2023/10/21 14:10:42;;;;;;;;;;;22.20;99.90;;;;;;5013121;28;19994;-68
2023/10/21 14:13:12;;;;;;;;;;;20.90;99.90;;;;;;5040471;28;19921;-70
2023/10/21 14:15:39;;;;;;;;;;;20.20;99.90;;;;;;5011580;28;19921;-70
2023/10/21 14:18:06;;;;;;;;;;;20.40;99.90;;;;;;5046984;28;19971;-70
2023/10/21 14:20:33;;;;;;;;;;;19.60;99.90;;;;;;5009902;28;19924;-70
2023/10/21 14:22:59;;;;;;;;;;;19.20;99.90;;;;;;5037269;28;19932;-70
2023/10/21 14:25:25;;;;;;;;;;;18.60;99.90;;;;;;5019609;28;19925;-70
2023/10/21 14:27:51;;;;;;;;;;;19.40;99.90;;;;;;5048439;28;20378;-69
2023/10/21 14:30:17;;;;;;;;;;;20.50;99.90;;;;;;5018411;28;19916;-69
2023/10/21 14:32:43;;;;;;;;;;;21.30;99.90;;;;;;5047442;28;20314;-70
2023/10/21 14:35:09;;;;;;;;;;;21.90;99.90;;;;;;5015244;28;19921;-70
2023/10/21 14:37:35;;;;;;;;;;;22.20;99.90;;;;;;5052387;28;19921;-70
2023/10/21 14:40:02;;;;;;;;;;;21.90;98.20;;;;;;5023088;28;19921;-69
2023/10/21 14:42:35;;;;;;;;;;;20.30;99.20;;;;;;5079171;27;19931;-70
2023/10/21 14:45:04;;;;;;;;;;;18.80;99.70;;;;;;5025715;27;19944;-70
2023/10/21 14:47:33;;;;;;;;;;;17.90;99.90;;;;;;5077923;27;19940;-70
2023/10/21 14:50:00;;;;;;;;;;;17.30;99.90;;;;;;4983814;28;233820;-70
2023/10/21 14:52:26;;;;;;;;;;;16.80;99.90;;;;;;5016337;28;19921;-70